Time;durP1;ratioP1;P1;durP2;ratioP2;P2;SDS_P1;SDS_P2;PMS_P1;PMS_P2;Temp;Humidity;BMP_temperature;BMP_pressure;BME280_temperature;BME280_humidity;BME280_pressure;Samples;Min_cycle;Max_cycle;Signal;HPM_P1;HPM_P2
2022/04/23 00:00:08;;;;;;;5.10;2.67;;;11.20;99.90;;;;;;5060995;28;20052;-85
2022/04/23 00:02:33;;;;;;;3.58;3.13;;;11.20;99.90;;;;;;5061294;28;20174;-84
2022/04/23 00:04:59;;;;;;;3.13;2.92;;;11.20;99.90;;;;;;5061402;28;20079;-85
2022/04/23 00:07:24;;;;;;;6.05;3.25;;;11.10;99.90;;;;;;5060828;28;20058;-85
2022/04/23 00:09:50;;;;;;;12.50;3.00;;;11.10;99.90;;;;;;5058876;28;20512;-85
2022/04/23 00:12:15;;;;;;;8.30;3.80;;;11.10;99.90;;;;;;5061347;28;20144;-85
2022/04/23 00:14:42;;;;;;;5.00;3.38;;;11.10;99.90;;;;;;5059970;28;20081;-85
2022/04/23 00:17:08;;;;;;;11.35;2.78;;;11.10;99.90;;;;;;5060586;28;20411;-85
2022/04/23 00:19:35;;;;;;;22.58;3.55;;;11.00;99.90;;;;;;5061651;28;20044;-85
2022/04/23 00:22:01;;;;;;;4.38;3.33;;;11.00;99.90;;;;;;5060804;28;20067;-86
2022/04/23 00:24:26;;;;;;;10.80;6.15;;;11.00;99.90;;;;;;5059928;28;20278;-85
2022/04/23 00:26:52;;;;;;;7.20;3.72;;;11.00;99.90;;;;;;5061499;28;20036;-85
2022/04/23 00:29:17;;;;;;;5.93;4.38;;;10.90;99.90;;;;;;5060764;28;20040;-85
2022/04/23 00:31:43;;;;;;;9.52;4.55;;;10.90;99.90;;;;;;5076528;28;20764;-85
2022/04/23 00:34:08;;;;;;;13.18;3.75;;;10.90;99.90;;;;;;5061175;28;20036;-85
2022/04/23 00:36:34;;;;;;;3.17;2.88;;;10.90;99.90;;;;;;5061137;28;20036;-85
2022/04/23 00:38:59;;;;;;;13.57;9.60;;;10.90;99.90;;;;;;5061408;28;20036;-85
2022/04/23 00:44:09;;;;;;;9.55;4.20;;;10.80;99.90;;;;;;5060747;28;20051;-84
2022/04/23 00:46:35;;;;;;;4.10;3.55;;;10.80;99.90;;;;;;5060550;28;20049;-85
2022/04/23 00:49:01;;;;;;;3.80;3.50;;;10.80;99.90;;;;;;5060351;28;20094;-77
2022/04/23 00:51:29;;;;;;;10.48;3.67;;;10.80;99.90;;;;;;5061412;28;20052;-85
2022/04/23 00:53:55;;;;;;;6.40;4.20;;;10.80;99.90;;;;;;5059665;28;20083;-85
2022/04/23 00:56:22;;;;;;;10.02;3.90;;;10.80;99.90;;;;;;5059310;28;20454;-85
2022/04/23 00:58:47;;;;;;;4.15;3.58;;;10.70;99.90;;;;;;5060608;28;20055;-85
2022/04/23 01:01:14;;;;;;;4.72;3.78;;;10.70;99.90;;;;;;5059362;28;20044;-85
2022/04/23 01:03:42;;;;;;;9.93;3.40;;;10.70;99.90;;;;;;5060716;28;20040;-85
2022/04/23 01:06:10;;;;;;;5.25;4.38;;;10.70;99.90;;;;;;5060658;28;20036;-85
2022/04/23 01:08:37;;;;;;;3.00;2.75;;;10.60;99.90;;;;;;5060658;28;20102;-85
2022/04/23 01:11:03;;;;;;;5.57;3.03;;;10.60;99.90;;;;;;5059277;28;20059;-85
2022/04/23 01:13:28;;;;;;;12.30;8.80;;;10.60;99.90;;;;;;5061276;28;20041;-85
2022/04/23 01:15:58;;;;;;;4.50;2.97;;;10.60;99.90;;;;;;5047303;28;20556;-85
2022/04/23 01:18:23;;;;;;;5.00;4.50;;;10.60;99.90;;;;;;5060445;28;20425;-85
2022/04/23 01:20:49;;;;;;;5.70;4.30;;;10.60;99.90;;;;;;5060706;28;20045;-85
2022/04/23 01:23:14;;;;;;;5.30;3.80;;;10.50;99.90;;;;;;5059936;28;20080;-86
2022/04/23 01:25:40;;;;;;;7.70;3.97;;;10.50;99.90;;;;;;5059315;28;20071;-85
2022/04/23 01:28:07;;;;;;;3.67;3.03;;;10.50;99.90;;;;;;5060561;28;20127;-85
2022/04/23 01:30:32;;;;;;;4.47;4.07;;;10.50;99.90;;;;;;5060271;28;20485;-85
2022/04/23 01:32:58;;;;;;;8.60;3.97;;;10.50;99.90;;;;;;5062526;28;20128;-85
2022/04/23 01:35:23;;;;;;;4.05;3.60;;;10.40;99.90;;;;;;5063930;28;20052;-85
2022/04/23 01:37:49;;;;;;;6.03;3.50;;;10.40;99.90;;;;;;5064206;28;20114;-85
2022/04/23 01:40:16;;;;;;;7.78;3.75;;;10.40;99.90;;;;;;5044762;28;20048;-85
2022/04/23 01:42:42;;;;;;;3.90;3.38;;;10.40;99.90;;;;;;5063811;28;20043;-85
2022/04/23 01:45:08;;;;;;;6.13;4.20;;;10.40;99.90;;;;;;5063531;28;20040;-85
2022/04/23 01:47:33;;;;;;;3.83;3.33;;;10.40;99.90;;;;;;5063913;28;20709;-85
2022/04/23 01:49:59;;;;;;;8.45;4.78;;;10.30;99.90;;;;;;5063958;28;20135;-85
2022/04/23 01:52:24;;;;;;;4.90;4.35;;;10.30;99.90;;;;;;5063086;28;20061;-85
2022/04/23 01:54:50;;;;;;;9.73;4.95;;;10.30;99.90;;;;;;5062502;28;20114;-85
2022/04/23 01:57:15;;;;;;;5.05;4.55;;;10.30;99.90;;;;;;5062539;28;20075;-85
2022/04/23 01:59:41;;;;;;;8.05;4.57;;;10.30;99.90;;;;;;5063706;28;20041;-85
2022/04/23 02:02:07;;;;;;;4.75;4.10;;;10.20;99.90;;;;;;5062261;28;20072;-86
2022/04/23 02:04:32;;;;;;;3.72;3.42;;;10.20;99.90;;;;;;5063185;28;20045;-85
2022/04/23 02:06:58;;;;;;;4.18;3.78;;;10.20;99.90;;;;;;5064047;28;20100;-85
2022/04/23 02:09:23;;;;;;;5.50;4.32;;;10.20;99.90;;;;;;5062228;28;20140;-85
2022/04/23 02:11:49;;;;;;;8.32;4.53;;;10.10;99.90;;;;;;5063340;28;20449;-84
2022/04/23 02:14:15;;;;;;;7.10;4.97;;;10.10;99.90;;;;;;5062959;28;20068;-85
2022/04/23 02:16:40;;;;;;;5.65;4.65;;;10.10;99.90;;;;;;5063336;28;20087;-85
2022/04/23 02:19:06;;;;;;;6.68;6.05;;;10.10;99.90;;;;;;5063214;28;20169;-85
2022/04/23 02:21:31;;;;;;;7.68;5.53;;;10.10;99.90;;;;;;5063003;28;20089;-85
2022/04/23 02:23:57;;;;;;;8.00;4.63;;;10.10;99.90;;;;;;5063147;28;20075;-85
2022/04/23 02:26:23;;;;;;;4.95;4.50;;;10.10;99.90;;;;;;5061071;28;20063;-85
2022/04/23 02:28:51;;;;;;;5.30;4.55;;;10.10;99.90;;;;;;5062983;28;20395;-85
2022/04/23 02:31:18;;;;;;;11.15;6.07;;;10.10;99.90;;;;;;5062658;28;20063;-85
2022/04/23 02:33:47;;;;;;;6.50;4.85;;;10.10;99.90;;;;;;5063133;28;20037;-85
2022/04/23 02:36:15;;;;;;;11.15;5.45;;;10.10;99.90;;;;;;5062570;28;20036;-84
2022/04/23 02:38:41;;;;;;;5.57;4.68;;;10.00;99.90;;;;;;5047317;28;20077;-85
2022/04/23 02:41:07;;;;;;;9.82;5.13;;;10.00;99.90;;;;;;5061721;28;20052;-83
2022/04/23 02:43:36;;;;;;;7.78;4.60;;;10.10;99.90;;;;;;5062234;28;20041;-85
2022/04/23 02:46:05;;;;;;;8.52;4.78;;;10.00;99.90;;;;;;5062112;28;20044;-84
2022/04/23 02:48:31;;;;;;;7.13;6.43;;;10.00;99.90;;;;;;5062649;28;20040;-85
2022/04/23 02:50:57;;;;;;;5.65;4.30;;;10.00;99.90;;;;;;5062773;28;20041;-85
2022/04/23 02:53:22;;;;;;;9.02;5.38;;;10.00;99.90;;;;;;5062979;28;20052;-84
2022/04/23 02:55:48;;;;;;;9.05;5.82;;;9.90;99.90;;;;;;5060669;28;20446;-84
2022/04/23 02:58:14;;;;;;;7.07;5.30;;;9.90;99.90;;;;;;5062169;28;20048;-85
2022/04/23 03:00:41;;;;;;;7.70;6.40;;;9.90;99.90;;;;;;5062841;28;20128;-84
2022/04/23 03:03:08;;;;;;;6.88;4.85;;;9.90;99.90;;;;;;5061963;28;20525;-85
2022/04/23 03:05:34;;;;;;;5.28;4.68;;;9.80;99.90;;;;;;5062234;28;20036;-85
2022/04/23 03:08:00;;;;;;;7.05;4.57;;;9.80;99.90;;;;;;5062486;28;20174;-85
2022/04/23 03:10:29;;;;;;;8.38;5.75;;;9.80;99.90;;;;;;5027000;28;20044;-85
2022/04/23 03:12:56;;;;;;;6.63;4.82;;;9.80;99.90;;;;;;5062463;28;20178;-85
2022/04/23 03:15:23;;;;;;;5.72;5.25;;;9.80;99.90;;;;;;5062012;28;20084;-85
2022/04/23 03:17:49;;;;;;;12.02;7.00;;;9.80;99.90;;;;;;5062283;28;20402;-85
2022/04/23 03:20:15;;;;;;;9.35;6.22;;;9.80;99.90;;;;;;5076445;28;20063;-85
2022/04/23 03:22:41;;;;;;;8.77;5.50;;;9.70;99.90;;;;;;5062090;28;20047;-84
2022/04/23 03:25:08;;;;;;;4.95;4.55;;;9.70;99.90;;;;;;5060418;28;20045;-85
2022/04/23 03:27:34;;;;;;;7.22;4.45;;;9.70;99.90;;;;;;5044364;28;20053;-85
2022/04/23 03:30:01;;;;;;;15.57;6.30;;;9.80;99.90;;;;;;5061888;28;20131;-85
2022/04/23 03:32:27;;;;;;;8.77;6.03;;;9.70;99.90;;;;;;5061863;28;20098;-84
2022/04/23 03:34:53;;;;;;;10.50;6.60;;;9.70;99.90;;;;;;5061263;28;20079;-85
2022/04/23 03:37:19;;;;;;;10.88;6.32;;;9.70;99.90;;;;;;5062088;28;20079;-85
2022/04/23 03:39:44;;;;;;;9.52;6.78;;;9.70;99.90;;;;;;5061001;28;20071;-85
2022/04/23 03:42:11;;;;;;;10.85;5.80;;;9.70;99.90;;;;;;5061168;28;20503;-85
2022/04/23 03:44:37;;;;;;;7.80;6.55;;;9.60;99.90;;;;;;5061928;28;20040;-84
2022/04/23 03:47:03;;;;;;;14.18;5.53;;;9.60;99.90;;;;;;5061003;28;20052;-84
2022/04/23 03:49:29;;;;;;;5.85;4.90;;;9.60;99.90;;;;;;5061157;28;20064;-84
2022/04/23 03:51:56;;;;;;;7.53;5.30;;;9.70;99.90;;;;;;5061549;28;20404;-84
2022/04/23 03:54:22;;;;;;;5.35;4.20;;;9.60;99.90;;;;;;5060160;28;20036;-84
2022/04/23 03:56:48;;;;;;;6.65;5.30;;;9.60;99.90;;;;;;5060323;28;20391;-85
2022/04/23 03:59:15;;;;;;;7.75;6.03;;;9.60;99.90;;;;;;5061432;28;20458;-85
2022/04/23 04:01:41;;;;;;;5.45;4.95;;;9.60;99.90;;;;;;5061798;28;20057;-85
2022/04/23 04:04:07;;;;;;;9.93;4.97;;;9.60;99.90;;;;;;5060822;28;20399;-85
2022/04/23 04:06:33;;;;;;;6.30;5.80;;;9.50;99.90;;;;;;5061089;28;20044;-85
2022/04/23 04:08:59;;;;;;;6.75;6.25;;;9.50;99.90;;;;;;5061056;28;20056;-85
2022/04/23 04:11:25;;;;;;;8.93;5.75;;;9.50;99.90;;;;;;5060892;28;20175;-85
2022/04/23 04:13:50;;;;;;;8.15;5.18;;;9.50;99.90;;;;;;5076958;28;20135;-85
2022/04/23 04:16:18;;;;;;;8.18;5.80;;;9.50;99.90;;;;;;5061365;28;20055;-84
2022/04/23 04:18:45;;;;;;;7.63;6.28;;;9.50;99.90;;;;;;5060622;28;20068;-84
2022/04/23 04:21:12;;;;;;;5.20;4.50;;;9.50;99.90;;;;;;5060778;28;20037;-84
2022/04/23 04:23:39;;;;;;;8.02;5.20;;;9.50;99.90;;;;;;5061659;28;20077;-85
2022/04/23 04:26:07;;;;;;;5.07;4.35;;;9.50;99.90;;;;;;5059856;28;20624;-85
2022/04/23 04:28:33;;;;;;;5.00;4.60;;;9.40;99.90;;;;;;5061480;28;20402;-85
2022/04/23 04:33:42;;;;;;;12.52;5.90;;;9.40;99.90;;;;;;5060833;28;20041;-85
2022/04/23 04:36:08;;;;;;;8.07;5.57;;;9.40;99.90;;;;;;5060037;28;20601;-85
2022/04/23 04:38:34;;;;;;;9.73;4.63;;;9.40;99.90;;;;;;5060526;28;20035;-85
2022/04/23 04:41:00;;;;;;;7.80;5.53;;;9.40;99.90;;;;;;5058537;28;20542;-85
2022/04/23 04:43:26;;;;;;;8.10;5.30;;;9.40;99.90;;;;;;5060665;28;20129;-85
2022/04/23 04:45:51;;;;;;;10.90;4.63;;;9.40;99.90;;;;;;5073840;28;20045;-84
2022/04/23 04:48:17;;;;;;;11.63;5.30;;;9.40;99.90;;;;;;5059264;28;20052;-85
2022/04/23 04:50:42;;;;;;;6.60;5.03;;;9.40;99.90;;;;;;5058799;28;20044;-85
2022/04/23 04:53:08;;;;;;;8.07;5.75;;;9.40;99.90;;;;;;5060474;28;20555;-85
2022/04/23 04:55:36;;;;;;;10.35;5.32;;;9.40;99.90;;;;;;5059738;28;20080;-87
2022/04/23 04:58:01;;;;;;;7.82;4.90;;;9.40;99.90;;;;;;5060249;28;20044;-87
2022/04/23 05:00:27;;;;;;;6.63;5.35;;;9.40;99.90;;;;;;5060629;28;20439;-87
2022/04/23 05:02:54;;;;;;;8.20;5.35;;;9.40;99.90;;;;;;5059596;28;20455;-86
2022/04/23 05:05:20;;;;;;;5.15;4.65;;;9.40;99.90;;;;;;5060547;28;20045;-86
2022/04/23 05:07:45;;;;;;;5.30;4.78;;;9.30;99.90;;;;;;5060613;28;20059;-82
2022/04/23 05:10:11;;;;;;;8.20;6.03;;;9.40;99.90;;;;;;5062395;28;20124;-85
2022/04/23 05:12:36;;;;;;;6.22;5.68;;;9.40;99.90;;;;;;5063900;28;20045;-84
2022/04/23 05:15:02;;;;;;;8.70;5.28;;;9.40;99.90;;;;;;5064310;28;20050;-92
2022/04/23 05:17:27;;;;;;;6.07;4.80;;;9.40;99.90;;;;;;5065268;28;20052;-91
2022/04/23 05:19:53;;;;;;;6.45;5.20;;;9.40;99.90;;;;;;5063882;28;20055;-91
2022/04/23 05:22:18;;;;;;;5.72;4.78;;;9.40;99.90;;;;;;5063776;28;20043;-92
2022/04/23 05:24:44;;;;;;;9.68;6.50;;;9.40;99.90;;;;;;5064006;28;20498;-90
2022/04/23 05:27:10;;;;;;;5.68;5.13;;;9.40;99.90;;;;;;5063826;28;20066;-91
2022/04/23 05:29:36;;;;;;;9.63;5.75;;;9.40;99.90;;;;;;5064048;28;20068;-84
2022/04/23 05:32:01;;;;;;;6.50;5.47;;;9.40;99.90;;;;;;5063677;28;20126;-83
2022/04/23 05:34:28;;;;;;;7.95;5.32;;;9.40;99.90;;;;;;5062680;28;20049;-83
2022/04/23 05:36:54;;;;;;;11.43;6.10;;;9.50;99.90;;;;;;5056337;28;20379;-86
2022/04/23 05:39:19;;;;;;;6.47;4.97;;;9.50;99.90;;;;;;5055016;28;20128;-92
2022/04/23 05:41:45;;;;;;;10.23;5.65;;;9.50;99.90;;;;;;5062072;28;20083;-83
2022/04/23 05:44:10;;;;;;;6.28;4.57;;;9.50;99.90;;;;;;5062544;28;20040;-87
2022/04/23 05:46:36;;;;;;;6.28;5.22;;;9.50;99.90;;;;;;5044448;28;20147;-88
2022/04/23 05:49:01;;;;;;;6.22;4.97;;;9.60;99.90;;;;;;5059294;28;20058;-88
2022/04/23 05:51:27;;;;;;;5.30;4.90;;;9.60;99.90;;;;;;5060447;28;20046;-87
2022/04/23 05:53:52;;;;;;;6.63;5.45;;;9.60;99.90;;;;;;5060680;28;20037;-87
2022/04/23 05:56:18;;;;;;;5.88;4.45;;;9.60;99.90;;;;;;5061114;28;20275;-87
2022/04/23 05:58:44;;;;;;;4.72;3.88;;;9.60;99.90;;;;;;5061666;28;20115;-87
2022/04/23 06:01:10;;;;;;;10.25;6.75;;;9.60;99.90;;;;;;5061979;28;20448;-88
2022/04/23 06:03:35;;;;;;;7.10;5.53;;;9.60;99.90;;;;;;5062104;28;20044;-87
2022/04/23 06:06:01;;;;;;;6.07;4.47;;;9.60;99.90;;;;;;5061709;28;20494;-87
2022/04/23 06:08:27;;;;;;;5.43;4.78;;;9.60;99.90;;;;;;5043583;28;20045;-87
2022/04/23 06:10:52;;;;;;;6.68;6.15;;;9.70;99.90;;;;;;5062163;28;20080;-88
2022/04/23 06:13:18;;;;;;;6.05;5.55;;;9.70;99.90;;;;;;5061353;28;20779;-87
2022/04/23 06:15:43;;;;;;;6.35;4.63;;;9.70;99.90;;;;;;5061155;28;20044;-87
2022/04/23 06:18:09;;;;;;;6.88;4.40;;;9.70;99.90;;;;;;5061605;28;20094;-87
2022/04/23 06:20:34;;;;;;;6.47;5.22;;;9.70;99.90;;;;;;5061668;28;20498;-87
2022/04/23 06:23:04;;;;;;;5.40;5.00;;;9.70;99.90;;;;;;5062446;28;20503;-88
2022/04/23 06:25:31;;;;;;;5.47;4.50;;;9.70;99.90;;;;;;5043147;28;20182;-87
2022/04/23 06:27:56;;;;;;;6.10;4.43;;;9.70;99.90;;;;;;5044268;28;20044;-87
2022/04/23 06:30:22;;;;;;;6.80;5.97;;;9.80;99.90;;;;;;5062051;28;20097;-88
2022/04/23 06:32:48;;;;;;;7.70;5.90;;;9.80;99.90;;;;;;5061572;28;20170;-87
2022/04/23 06:35:13;;;;;;;5.47;4.95;;;9.80;99.90;;;;;;5061305;28;20044;-87
2022/04/23 06:37:40;;;;;;;6.72;4.10;;;9.80;99.90;;;;;;5061686;28;20395;-88
2022/04/23 06:40:13;;;;;;;5.65;5.15;;;9.90;99.90;;;;;;5060397;28;20064;-88
2022/04/23 06:42:39;;;;;;;12.55;4.75;;;9.90;99.90;;;;;;5061500;28;20081;-88
2022/04/23 06:45:06;;;;;;;6.80;4.65;;;9.90;99.90;;;;;;5061191;28;20036;-88
2022/04/23 06:47:31;;;;;;;5.75;5.25;;;10.00;99.90;;;;;;5061777;28;20517;-87
2022/04/23 06:50:00;;;;;;;7.35;6.28;;;10.00;99.90;;;;;;5060534;28;20084;-88
2022/04/23 06:52:26;;;;;;;5.18;4.10;;;10.00;99.90;;;;;;5061377;28;20048;-87
2022/04/23 06:54:54;;;;;;;7.53;4.90;;;10.10;99.90;;;;;;5060290;28;20036;-88
2022/04/23 06:57:22;;;;;;;5.22;4.72;;;10.10;99.90;;;;;;5061298;28;20079;-88
2022/04/23 06:59:48;;;;;;;6.10;5.13;;;10.10;99.90;;;;;;5061456;28;20310;-88
2022/04/23 07:02:13;;;;;;;9.70;4.75;;;10.20;99.90;;;;;;5059972;28;20132;-88
2022/04/23 07:04:39;;;;;;;12.60;5.97;;;10.20;99.90;;;;;;5060976;28;20059;-86
2022/04/23 07:07:05;;;;;;;12.43;5.18;;;10.20;99.90;;;;;;5060708;28;20161;-88
2022/04/23 07:09:31;;;;;;;8.18;5.15;;;10.30;99.90;;;;;;5060410;28;20056;-87
2022/04/23 07:11:58;;;;;;;5.82;4.72;;;10.30;99.90;;;;;;5061434;28;20048;-88
2022/04/23 07:14:25;;;;;;;10.50;5.55;;;10.30;99.90;;;;;;5060414;28;20333;-88
2022/04/23 07:16:50;;;;;;;4.47;4.05;;;10.40;99.90;;;;;;5061089;28;20056;-88
2022/04/23 07:19:16;;;;;;;7.18;6.50;;;10.40;99.90;;;;;;5059311;28;20495;-87
2022/04/23 07:21:41;;;;;;;8.35;5.50;;;10.50;99.90;;;;;;5060458;28;20392;-87
2022/04/23 07:24:10;;;;;;;7.95;5.20;;;10.50;99.90;;;;;;5059395;28;20116;-88
2022/04/23 07:26:37;;;;;;;4.88;4.40;;;10.50;99.90;;;;;;5059284;28;20089;-87
2022/04/23 07:29:05;;;;;;;8.10;6.47;;;10.60;99.90;;;;;;5060515;28;20044;-88
2022/04/23 07:31:31;;;;;;;7.47;5.05;;;10.60;99.90;;;;;;5060286;28;20044;-81
2022/04/23 07:39:25;;;;;;;7.72;5.57;;;10.70;99.90;;;;;;5060256;28;20059;-88
2022/04/23 07:41:54;;;;;;;11.32;6.15;;;10.80;99.90;;;;;;5060098;28;20419;-88
2022/04/23 07:44:21;;;;;;;6.43;5.78;;;10.80;99.90;;;;;;5060334;28;20483;-88
2022/04/23 07:46:47;;;;;;;6.10;4.97;;;10.90;99.90;;;;;;5060340;28;20108;-88
2022/04/23 07:49:13;;;;;;;8.50;4.40;;;10.90;99.90;;;;;;5041760;28;20120;-88
2022/04/23 07:51:39;;;;;;;9.45;5.82;;;11.00;99.90;;;;;;5060375;28;20590;-88
2022/04/23 07:54:05;;;;;;;4.75;4.28;;;11.00;99.90;;;;;;5058934;28;20060;-87
2022/04/23 07:56:30;;;;;;;7.28;5.72;;;11.10;99.90;;;;;;5042430;28;20233;-88
2022/04/23 07:58:56;;;;;;;6.70;4.97;;;11.10;99.90;;;;;;5060865;28;20564;-87
2022/04/23 08:01:21;;;;;;;8.88;5.55;;;11.20;99.90;;;;;;5043161;28;20075;-89
2022/04/23 08:03:47;;;;;;;6.85;4.90;;;11.20;99.90;;;;;;5059814;28;20165;-88
2022/04/23 08:06:13;;;;;;;7.47;4.70;;;11.30;99.90;;;;;;5059686;28;20084;-88
2022/04/23 08:08:39;;;;;;;6.97;5.20;;;11.30;99.90;;;;;;5041722;28;20415;-87
2022/04/23 08:11:06;;;;;;;5.82;4.97;;;11.40;99.90;;;;;;5059868;28;20143;-87
2022/04/23 08:13:32;;;;;;;6.50;5.63;;;11.40;99.90;;;;;;5059877;28;20041;-87
2022/04/23 08:15:59;;;;;;;5.50;4.82;;;11.40;99.90;;;;;;5060720;28;20045;-88
2022/04/23 08:18:26;;;;;;;6.95;5.57;;;11.50;99.90;;;;;;5059209;28;20085;-87
2022/04/23 08:20:51;;;;;;;5.50;5.00;;;11.50;99.90;;;;;;5060099;28;20126;-87
2022/04/23 08:23:19;;;;;;;5.65;4.68;;;11.50;99.90;;;;;;5058971;28;20503;-88
2022/04/23 08:25:45;;;;;;;8.27;4.57;;;11.50;99.90;;;;;;5059447;28;20040;-89
2022/04/23 08:30:55;;;;;;;10.43;4.95;;;11.60;99.90;;;;;;5059934;28;20083;-88
2022/04/23 08:33:21;;;;;;;9.07;4.70;;;11.70;99.90;;;;;;5059709;28;20068;-88
2022/04/23 08:35:47;;;;;;;5.65;4.65;;;11.70;99.90;;;;;;5041507;28;20538;-88
2022/04/23 08:38:12;;;;;;;11.75;5.22;;;11.70;99.90;;;;;;5059097;28;20471;-88
2022/04/23 08:40:45;;;;;;;5.18;4.70;;;11.80;99.90;;;;;;5059537;28;20047;-87
2022/04/23 08:43:11;;;;;;;5.80;5.13;;;11.80;99.90;;;;;;5045682;28;20054;-88
2022/04/23 08:45:38;;;;;;;5.13;4.45;;;11.90;99.90;;;;;;5063897;28;20131;-88
2022/04/23 08:48:09;;;;;;;6.97;5.95;;;11.90;99.90;;;;;;5063206;28;20044;-88
2022/04/23 08:50:38;;;;;;;7.18;5.47;;;11.90;99.90;;;;;;5063638;28;20115;-87
2022/04/23 08:53:14;;;;;;;6.07;4.85;;;11.90;99.90;;;;;;5062273;28;20064;-88
2022/04/23 08:55:44;;;;;;;11.30;6.57;;;12.00;99.90;;;;;;5063851;28;20362;-88
2022/04/23 08:58:12;;;;;;;7.68;4.93;;;12.00;99.90;;;;;;5063029;28;20044;-88
2022/04/23 09:00:37;;;;;;;6.13;4.30;;;12.00;99.90;;;;;;5063900;28;20166;-88
2022/04/23 09:03:03;;;;;;;4.80;4.40;;;12.00;99.90;;;;;;5063471;28;20505;-88
2022/04/23 09:05:31;;;;;;;7.57;4.75;;;12.10;99.90;;;;;;5063544;28;20148;-88
2022/04/23 09:07:56;;;;;;;5.40;4.47;;;12.10;99.90;;;;;;5061461;28;20128;-87
2022/04/23 09:10:48;;;;;;;6.00;4.70;;;12.20;99.90;;;;;;5063116;28;20127;-87
2022/04/23 09:13:30;;;;;;;5.07;4.57;;;12.20;99.90;;;;;;5063100;28;20453;-88
2022/04/23 09:24:15;;;;;;;6.50;4.70;;;12.30;99.90;;;;;;5061674;28;20051;-88
2022/04/23 09:26:41;;;;;;;6.20;4.35;;;12.40;99.90;;;;;;5061717;28;20244;-87
2022/04/23 09:29:15;;;;;;;4.82;4.35;;;12.40;99.90;;;;;;5062990;28;20536;-88
2022/04/23 09:31:41;;;;;;;5.85;4.43;;;12.40;99.90;;;;;;5063508;28;20095;-87
2022/04/23 09:34:17;;;;;;;6.03;4.75;;;12.40;99.90;;;;;;5061134;28;20487;-87
2022/04/23 09:36:54;;;;;;;5.88;4.65;;;12.50;99.90;;;;;;5061867;28;20041;-88
2022/04/23 09:39:31;;;;;;;7.20;5.32;;;12.50;99.90;;;;;;5060856;28;20301;-87
2022/04/23 09:42:17;;;;;;;5.60;4.40;;;12.50;99.90;;;;;;5061822;28;20049;-88
2022/04/23 09:44:47;;;;;;;5.72;4.45;;;12.50;99.90;;;;;;5062236;28;20507;-86
2022/04/23 09:47:32;;;;;;;6.03;5.10;;;12.60;99.90;;;;;;5061880;28;20579;-87
2022/04/23 09:49:58;;;;;;;7.47;6.28;;;12.60;99.90;;;;;;5062948;28;20060;-87
2022/04/23 09:52:30;;;;;;;5.20;4.45;;;12.70;99.90;;;;;;5061714;28;21021;-87
2022/04/23 09:54:56;;;;;;;6.18;5.57;;;12.70;99.90;;;;;;5061391;28;20246;-87
2022/04/23 09:57:23;;;;;;;6.65;5.40;;;12.70;99.90;;;;;;5062152;28;20432;-87
2022/04/23 09:59:52;;;;;;;7.40;5.15;;;12.80;99.90;;;;;;5044697;28;20037;-87
2022/04/23 10:02:21;;;;;;;4.57;4.07;;;12.80;99.90;;;;;;5044204;28;20052;-87
2022/04/23 10:04:47;;;;;;;5.85;4.60;;;12.80;99.90;;;;;;5061816;28;20047;-87
2022/04/23 10:07:17;;;;;;;6.95;5.25;;;12.80;99.90;;;;;;5062027;28;20633;-88
2022/04/23 10:09:45;;;;;;;6.97;3.88;;;12.90;99.90;;;;;;5061044;28;20086;-87
2022/04/23 10:12:17;;;;;;;5.43;4.90;;;12.90;99.90;;;;;;5061537;28;20049;-87
2022/04/23 10:14:49;;;;;;;7.38;5.00;;;12.90;99.90;;;;;;5062174;28;20133;-87
2022/04/23 10:17:20;;;;;;;6.55;5.35;;;12.90;99.90;;;;;;5061699;28;20043;-87
2022/04/23 10:19:46;;;;;;;6.55;4.40;;;12.90;99.90;;;;;;5061969;28;20080;-88
2022/04/23 10:22:37;;;;;;;6.22;4.97;;;13.00;99.90;;;;;;5061722;28;20118;-87
2022/04/23 10:25:27;;;;;;;6.97;4.40;;;13.00;99.90;;;;;;5019598;28;20095;-88
2022/04/23 10:27:56;;;;;;;8.20;4.65;;;13.00;99.90;;;;;;5043589;28;20301;-87
2022/04/23 10:30:22;;;;;;;14.18;6.10;;;13.10;99.90;;;;;;5043613;28;20076;-87
2022/04/23 10:32:48;;;;;;;6.72;5.53;;;13.10;99.90;;;;;;5062054;28;20079;-88
2022/04/23 10:35:16;;;;;;;8.75;4.93;;;13.10;99.90;;;;;;5061160;28;20578;-87
2022/04/23 10:37:42;;;;;;;6.32;4.35;;;13.20;99.90;;;;;;5060746;28;20059;-88
2022/04/23 10:40:10;;;;;;;6.40;4.82;;;13.20;99.90;;;;;;5042840;28;20325;-87
2022/04/23 10:42:38;;;;;;;7.97;4.85;;;13.30;99.90;;;;;;5061678;28;20115;-87
2022/04/23 10:45:05;;;;;;;7.97;5.35;;;13.30;99.90;;;;;;5061094;28;20044;-87
2022/04/23 10:47:39;;;;;;;6.50;5.18;;;13.30;99.90;;;;;;5061363;28;20060;-84
2022/04/23 10:50:22;;;;;;;4.43;3.83;;;13.40;99.90;;;;;;5061282;28;20102;-88
2022/04/23 10:52:55;;;;;;;7.15;4.40;;;13.40;99.90;;;;;;5060568;28;20411;-87
2022/04/23 10:55:21;;;;;;;7.43;5.20;;;13.40;99.90;;;;;;5061148;28;20447;-87
2022/04/23 10:57:49;;;;;;;5.30;4.15;;;13.50;99.90;;;;;;5061233;28;20087;-88
2022/04/23 11:00:17;;;;;;;5.53;4.03;;;13.50;99.90;;;;;;5059671;28;20040;-87
2022/04/23 11:02:54;;;;;;;6.95;5.47;;;13.60;99.90;;;;;;5060641;28;20349;-88
2022/04/23 11:14:37;;;;;;;5.88;3.40;;;13.70;99.90;;;;;;5018077;28;20091;-88
2022/04/23 11:17:02;;;;;;;5.63;4.60;;;13.60;99.90;;;;;;5050348;28;20462;-88
2022/04/23 11:19:29;;;;;;;4.72;4.10;;;13.70;99.90;;;;;;5061160;28;20041;-88
2022/04/23 11:21:55;;;;;;;5.18;3.92;;;13.70;99.90;;;;;;5060530;28;20044;-88
2022/04/23 11:24:22;;;;;;;6.85;4.07;;;13.70;99.90;;;;;;5058292;28;20101;-87
2022/04/23 11:26:55;;;;;;;5.10;4.60;;;13.80;99.90;;;;;;5134252;27;20128;-86
2022/04/23 11:29:21;;;;;;;5.50;4.22;;;13.80;99.90;;;;;;5118047;27;20053;-86
2022/04/23 11:31:55;;;;;;;6.20;3.63;;;13.80;99.90;;;;;;5118409;27;20409;-86
2022/04/23 11:34:22;;;;;;;4.95;4.07;;;13.80;99.90;;;;;;5116375;28;20053;-86
2022/04/23 11:36:48;;;;;;;4.82;4.05;;;13.90;99.90;;;;;;5118532;27;20425;-86
2022/04/23 11:39:13;;;;;;;4.03;3.70;;;14.00;99.90;;;;;;5116017;27;20043;-86
2022/04/23 11:41:48;;;;;;;5.57;4.07;;;14.00;99.90;;;;;;5117798;27;20047;-85
2022/04/23 11:44:17;;;;;;;5.47;4.00;;;14.00;99.90;;;;;;5117850;27;20399;-86
2022/04/23 11:46:46;;;;;;;3.92;3.47;;;14.00;99.90;;;;;;5117621;27;20572;-86
2022/04/23 11:49:26;;;;;;;5.88;3.97;;;14.10;99.90;;;;;;5117711;27;20050;-86
2022/04/23 11:52:02;;;;;;;5.32;4.20;;;14.10;99.90;;;;;;5117879;27;20541;-86
2022/04/23 11:54:37;;;;;;;5.68;4.05;;;14.10;99.90;;;;;;5117184;27;20074;-86
2022/04/23 11:57:04;;;;;;;6.93;4.28;;;14.10;99.90;;;;;;5116351;28;20126;-86
2022/04/23 11:59:36;;;;;;;5.97;3.13;;;14.10;99.90;;;;;;5116811;28;20046;-86
2022/04/23 12:02:04;;;;;;;5.70;3.72;;;14.20;99.90;;;;;;5117428;27;20039;-86
2022/04/23 12:04:48;;;;;;;3.95;3.55;;;14.20;99.90;;;;;;5117651;27;20524;-85
2022/04/23 12:07:13;;;;;;;6.82;4.43;;;14.20;99.90;;;;;;5117213;27;20131;-85
2022/04/23 12:09:52;;;;;;;6.57;4.10;;;14.30;99.90;;;;;;5116891;27;20110;-86
2022/04/23 12:12:19;;;;;;;3.60;3.33;;;14.30;99.90;;;;;;5117090;27;20040;-86
2022/04/23 12:14:58;;;;;;;4.07;3.63;;;14.30;99.90;;;;;;5116307;27;20032;-86
2022/04/23 12:17:41;;;;;;;4.78;3.10;;;14.30;99.90;;;;;;5117041;27;20350;-86
2022/04/23 12:20:12;;;;;;;4.93;3.45;;;14.30;99.90;;;;;;5115356;28;20536;-86
2022/04/23 12:22:38;;;;;;;5.22;3.13;;;14.40;99.90;;;;;;5115007;28;20047;-86
2022/04/23 12:25:13;;;;;;;4.75;4.13;;;14.40;99.90;;;;;;5116888;27;20054;-86
2022/04/23 12:27:58;;;;;;;4.13;3.67;;;14.50;99.90;;;;;;5117177;27;20039;-86
2022/04/23 12:41:55;;;;;;;6.13;3.78;;;14.50;99.90;;;;;;5103516;28;20067;-86
2022/04/23 12:44:22;;;;;;;10.68;3.30;;;14.60;99.90;;;;;;5101531;28;20040;-86
2022/04/23 12:47:02;;;;;;;3.17;2.88;;;14.60;99.90;;;;;;5103166;27;20058;-86
2022/04/23 12:49:47;;;;;;;3.95;3.63;;;14.60;99.90;;;;;;5103487;28;20103;-86
2022/04/23 12:52:20;;;;;;;5.72;4.40;;;14.70;99.90;;;;;;5101346;28;20040;-86
2022/04/23 12:55:12;;;;;;;3.72;2.90;;;14.70;99.90;;;;;;5101909;28;20055;-86
2022/04/23 12:57:47;;;;;;;4.40;2.90;;;14.80;99.90;;;;;;5102607;28;20452;-86
2022/04/23 13:00:18;;;;;;;3.42;2.88;;;14.80;99.90;;;;;;5101317;28;20566;-85
2022/04/23 13:02:47;;;;;;;5.72;3.53;;;14.80;99.90;;;;;;5102796;28;20059;-86
2022/04/23 13:05:13;;;;;;;3.33;3.00;;;14.90;99.90;;;;;;5102692;28;20046;-86
2022/04/23 13:10:23;;;;;;;5.07;3.83;;;14.90;99.90;;;;;;5102358;28;20509;-86
2022/04/23 13:12:49;;;;;;;3.65;3.25;;;14.90;99.90;;;;;;5102897;28;20036;-86
2022/04/23 13:15:18;;;;;;;3.72;2.53;;;14.90;99.90;;;;;;5102103;28;20047;-86
2022/04/23 13:17:46;;;;;;;4.25;3.85;;;15.00;99.90;;;;;;5102679;27;20039;-86
2022/04/23 13:20:13;;;;;;;4.72;3.35;;;15.00;99.90;;;;;;5084046;28;20035;-86
2022/04/23 13:22:43;;;;;;;4.57;3.72;;;15.00;99.90;;;;;;5101590;28;20031;-86
2022/04/23 13:25:13;;;;;;;4.95;3.70;;;15.00;99.90;;;;;;5101992;28;20044;-86
2022/04/23 13:27:39;;;;;;;6.20;3.28;;;15.00;99.90;;;;;;5102556;28;20043;-86
2022/04/23 13:30:06;;;;;;;3.20;2.95;;;15.00;99.90;;;;;;5102172;28;20043;-86
2022/04/23 13:32:34;;;;;;;6.30;3.55;;;15.00;99.90;;;;;;5100865;28;20070;-86
2022/04/23 13:34:59;;;;;;;5.30;3.85;;;15.00;99.90;;;;;;5101458;28;20040;-85